TimeCDT,TemperatureF,Dew PointF,Humidity,Sea Level PressureIn,VisibilityMPH,Wind Direction,Wind SpeedMPH,Gust SpeedMPH,PrecipitationIn,Events,Conditions,WindDirDegrees,DateUTC
12:15 AM,32.0,28.4,87,29.85,10.0,WNW,21.9,28.8,N/A,,Overcast,300,2013-04-19 05:15:00
12:35 AM,32.0,28.4,87,29.85,10.0,WNW,21.9,28.8,N/A,,Overcast,300,2013-04-19 05:35:00
12:55 AM,30.2,28.4,93,29.85,10.0,NW,24.2,29.9,N/A,,Overcast,310,2013-04-19 05:55:00
1:15 AM,30.2,28.4,93,29.84,10.0,NW,21.9,27.6,N/A,,Overcast,310,2013-04-19 06:15:00
1:35 AM,30.2,28.4,93,29.84,7.0,WNW,20.7,28.8,N/A,,Overcast,300,2013-04-19 06:35:00
1:55 AM,30.2,28.4,93,29.84,7.0,WNW,21.9,29.9,N/A,Snow,Light Snow,300,2013-04-19 06:55:00
2:15 AM,30.2,26.6,86,29.84,7.0,WNW,21.9,31.1,N/A,Snow,Light Snow,300,2013-04-19 07:15:00
2:35 AM,30.2,24.8,80,29.83,10.0,WNW,23.0,32.2,N/A,Snow,Light Snow,300,2013-04-19 07:35:00
2:55 AM,30.2,24.8,80,29.83,10.0,WNW,24.2,28.8,N/A,Snow,Light Snow,300,2013-04-19 07:55:00
3:15 AM,30.2,24.8,80,29.83,10.0,WNW,20.7,27.6,N/A,,Overcast,300,2013-04-19 08:15:00
3:35 AM,30.2,23.0,75,29.84,10.0,WNW,20.7,27.6,N/A,,Overcast,300,2013-04-19 08:35:00
3:55 AM,28.4,23.0,80,29.84,10.0,WNW,19.6,25.3,N/A,,Scattered Clouds,290,2013-04-19 08:55:00
4:15 AM,28.4,23.0,80,29.84,10.0,WNW,16.1,23.0,N/A,,Clear,290,2013-04-19 09:15:00
4:35 AM,28.4,23.0,80,29.84,10.0,West,18.4,21.9,N/A,,Mostly Cloudy,280,2013-04-19 09:35:00
4:55 AM,28.4,23.0,80,29.84,10.0,WNW,17.3,24.2,N/A,,Mostly Cloudy,290,2013-04-19 09:55:00
5:15 AM,28.4,21.2,74,29.84,10.0,WNW,16.1,21.9,N/A,,Scattered Clouds,290,2013-04-19 10:15:00
5:55 AM,26.6,21.2,80,29.86,10.0,WNW,16.1,-,N/A,,Clear,290,2013-04-19 10:55:00
6:15 AM,26.6,21.2,80,29.86,10.0,WNW,15.0,19.6,N/A,,Clear,290,2013-04-19 11:15:00
6:35 AM,26.6,21.2,80,29.86,10.0,WNW,17.3,24.2,N/A,,Clear,290,2013-04-19 11:35:00
6:55 AM,26.6,21.2,80,29.87,10.0,WNW,17.3,21.9,N/A,,Clear,290,2013-04-19 11:55:00
7:15 AM,26.6,21.2,80,29.88,10.0,WNW,18.4,24.2,N/A,,Clear,290,2013-04-19 12:15:00
7:35 AM,28.4,21.2,74,29.87,10.0,WNW,21.9,26.5,N/A,,Clear,290,2013-04-19 12:35:00
7:55 AM,28.4,21.2,74,29.88,10.0,WNW,21.9,27.6,N/A,,Clear,290,2013-04-19 12:55:00
8:15 AM,28.4,21.2,74,29.88,10.0,WNW,23.0,28.8,N/A,,Clear,290,2013-04-19 13:15:00
8:35 AM,28.4,21.2,74,29.89,10.0,WNW,20.7,26.5,N/A,,Clear,290,2013-04-19 13:35:00
8:55 AM,30.2,21.2,69,29.89,10.0,WNW,20.7,28.8,N/A,,Clear,290,2013-04-19 13:55:00
9:15 AM,30.2,24.8,80,29.89,10.0,WNW,21.9,26.5,N/A,,Clear,290,2013-04-19 14:15:00
9:55 AM,32.0,24.8,75,29.91,10.0,WNW,19.6,-,N/A,,Clear,290,2013-04-19 14:55:00
10:15 AM,33.8,24.8,70,29.91,10.0,West,21.9,25.3,N/A,,Clear,280,2013-04-19 15:15:00
10:35 AM,33.8,26.6,75,29.92,10.0,WNW,20.7,-,N/A,,Clear,290,2013-04-19 15:35:00
10:55 AM,35.6,26.6,70,29.92,10.0,West,21.9,26.5,N/A,,Clear,280,2013-04-19 15:55:00
11:15 AM,35.6,26.6,70,29.92,10.0,WNW,21.9,28.8,N/A,,Clear,290,2013-04-19 16:15:00
11:35 AM,37.4,28.4,70,29.92,10.0,WNW,23.0,-,N/A,,Clear,300,2013-04-19 16:35:00
11:55 AM,37.4,26.6,65,29.93,10.0,WNW,23.0,32.2,N/A,,Clear,290,2013-04-19 16:55:00
12:15 PM,39.2,26.6,61,29.93,10.0,WNW,23.0,28.8,N/A,,Clear,290,2013-04-19 17:15:00
12:35 PM,39.2,26.6,61,29.94,10.0,WNW,20.7,31.1,N/A,,Clear,300,2013-04-19 17:35:00
12:55 PM,39.2,26.6,61,29.94,10.0,WNW,20.7,32.2,N/A,,Clear,300,2013-04-19 17:55:00
1:15 PM,41.0,24.8,53,29.94,10.0,WNW,24.2,29.9,N/A,,Clear,300,2013-04-19 18:15:00
1:35 PM,42.8,24.8,49,29.94,10.0,NW,25.3,32.2,N/A,,Scattered Clouds,310,2013-04-19 18:35:00
1:55 PM,42.8,23.0,46,29.95,10.0,NW,23.0,35.7,N/A,,Scattered Clouds,310,2013-04-19 18:55:00
2:15 PM,42.8,21.2,42,29.95,10.0,NW,20.7,38.0,N/A,,Scattered Clouds,310,2013-04-19 19:15:00
2:35 PM,42.8,21.2,42,29.96,10.0,WNW,23.0,32.2,N/A,,Scattered Clouds,300,2013-04-19 19:35:00
2:55 PM,42.8,21.2,42,29.97,10.0,NW,21.9,31.1,N/A,,Mostly Cloudy,320,2013-04-19 19:55:00
3:15 PM,41.0,21.2,45,29.97,10.0,NW,21.9,28.8,N/A,,Mostly Cloudy,310,2013-04-19 20:15:00
3:35 PM,42.8,19.4,39,29.97,10.0,NW,25.3,36.8,N/A,,Mostly Cloudy,310,2013-04-19 20:35:00
3:55 PM,42.8,21.2,42,29.98,10.0,NW,24.2,35.7,N/A,,Scattered Clouds,310,2013-04-19 20:55:00
4:15 PM,41.0,19.4,42,29.98,10.0,NW,25.3,32.2,N/A,,Scattered Clouds,310,2013-04-19 21:15:00
4:35 PM,41.0,19.4,42,29.99,10.0,NW,24.2,29.9,N/A,,Mostly Cloudy,310,2013-04-19 21:35:00
4:55 PM,42.8,21.2,42,29.99,10.0,NW,24.2,33.4,N/A,,Mostly Cloudy,310,2013-04-19 21:55:00
5:15 PM,44.6,21.2,39,30.00,10.0,NW,21.9,28.8,N/A,,Mostly Cloudy,310,2013-04-19 22:15:00
5:35 PM,41.0,21.2,45,30.01,10.0,NW,17.3,33.4,N/A,,Mostly Cloudy,310,2013-04-19 22:35:00
5:55 PM,39.2,21.2,49,30.02,10.0,NW,19.6,31.1,N/A,,Mostly Cloudy,310,2013-04-19 22:55:00
6:15 PM,42.8,19.4,39,30.02,10.0,NW,23.0,32.2,N/A,,Scattered Clouds,310,2013-04-19 23:15:00
6:35 PM,41.0,19.4,42,30.03,10.0,NW,20.7,27.6,N/A,,Scattered Clouds,310,2013-04-19 23:35:00
6:55 PM,39.2,19.4,45,30.03,10.0,NW,15.0,-,N/A,,Scattered Clouds,320,2013-04-19 23:55:00
7:15 PM,39.2,19.4,45,30.04,10.0,NW,19.6,26.5,N/A,,Clear,310,2013-04-20 00:15:00
7:35 PM,37.4,19.4,48,30.05,10.0,NW,18.4,23.0,N/A,,Clear,320,2013-04-20 00:35:00
7:55 PM,37.4,19.4,48,30.06,10.0,NW,13.8,21.9,N/A,,Clear,310,2013-04-20 00:55:00
8:15 PM,35.6,19.4,52,30.07,10.0,NW,13.8,-,N/A,,Clear,310,2013-04-20 01:15:00
8:35 PM,33.8,21.2,60,30.08,10.0,WNW,12.7,-,N/A,,Clear,300,2013-04-20 01:35:00
8:55 PM,33.8,21.2,60,30.09,10.0,NW,6.9,-,N/A,,Clear,320,2013-04-20 01:55:00
9:15 PM,30.2,21.2,69,30.10,10.0,NW,6.9,-,N/A,,Clear,310,2013-04-20 02:15:00
9:35 PM,30.2,21.2,69,30.11,10.0,NW,5.8,-,N/A,,Clear,310,2013-04-20 02:35:00
9:55 PM,28.4,21.2,74,30.12,10.0,NW,5.8,-,N/A,,Clear,320,2013-04-20 02:55:00
10:15 PM,26.6,23.0,86,30.12,10.0,NW,3.5,-,N/A,,Clear,320,2013-04-20 03:15:00
10:35 PM,28.4,23.0,80,30.12,10.0,NNW,4.6,-,N/A,,Clear,340,2013-04-20 03:35:00
10:55 PM,28.4,23.0,80,30.12,10.0,NNW,3.5,-,N/A,,Clear,340,2013-04-20 03:55:00
11:15 PM,26.6,23.0,86,30.12,10.0,NNW,3.5,-,N/A,,Clear,330,2013-04-20 04:15:00
11:35 PM,26.6,21.2,80,30.13,10.0,WNW,8.1,-,N/A,,Clear,300,2013-04-20 04:35:00
11:55 PM,26.6,21.2,80,30.14,10.0,WNW,6.9,-,N/A,,Clear,290,2013-04-20 04:55:00